Time;durP1;ratioP1;P1;durP2;ratioP2;P2;SDS_P1;SDS_P2;PMS_P1;PMS_P2;Temp;Humidity;BMP_temperature;BMP_pressure;BME280_temperature;BME280_humidity;BME280_pressure;Samples;Min_cycle;Max_cycle;Signal;HPM_P1;HPM_P2
2021/08/27 00:00:04;;;;;;;3.08;1.45;;;;;;;16.82;65.12;99620.47;813938;47;20066;-77
2021/08/27 00:00:53;;;;;;;2.70;1.20;;;;;;;16.86;65.37;99613.66;813147;47;20034;-78
2021/08/27 00:01:39;;;;;;;3.22;1.40;;;;;;;16.83;65.51;99617.59;813049;54;20058;-76
2021/08/27 00:02:28;;;;;;;3.25;1.20;;;;;;;16.85;65.33;99620.09;813153;47;20060;-77
2021/08/27 00:03:14;;;;;;;4.97;1.55;;;;;;;16.80;65.54;99617.97;813539;54;20111;-78
2021/08/27 00:04:03;;;;;;;4.13;1.35;;;;;;;16.80;65.86;99609.06;813846;54;20038;-78
2021/08/27 00:04:48;;;;;;;3.85;1.38;;;;;;;16.80;66.12;99611.75;813603;54;20074;-78
2021/08/27 00:05:37;;;;;;;3.13;1.30;;;;;;;16.72;66.11;99614.59;813502;54;20034;-78
2021/08/27 00:06:23;;;;;;;4.10;1.50;;;;;;;16.67;66.68;99613.31;813901;54;20042;-78
2021/08/27 00:07:12;;;;;;;3.83;1.77;;;;;;;16.62;67.08;99625.72;813782;47;20042;-78
2021/08/27 00:07:57;;;;;;;3.17;1.40;;;;;;;16.57;67.36;99622.78;813787;54;20628;-77
2021/08/27 00:08:46;;;;;;;4.50;1.63;;;;;;;16.49;67.88;99623.75;814007;54;20043;-78
2021/08/27 00:09:32;;;;;;;3.60;1.50;;;;;;;16.50;68.04;99625.41;814007;47;21083;-79
2021/08/27 00:10:20;;;;;;;4.32;1.50;;;;;;;16.50;67.75;99628.94;813794;54;20042;-77
2021/08/27 00:11:06;;;;;;;4.65;1.67;;;;;;;16.49;68.13;99626.44;814182;54;20067;-77
2021/08/27 00:11:56;;;;;;;4.35;1.77;;;;;;;16.47;68.18;99623.94;814052;54;20059;-78
2021/08/27 00:12:42;;;;;;;3.90;1.60;;;;;;;16.43;68.55;99619.94;814687;54;20062;-78
2021/08/27 00:13:30;;;;;;;3.95;1.70;;;;;;;16.44;68.55;99618.06;814384;54;20155;-77
2021/08/27 00:14:19;;;;;;;6.85;2.17;;;;;;;16.40;68.97;99627.59;815051;39;20677;-78
2021/08/27 00:15:11;;;;;;;4.38;1.55;;;;;;;16.38;69.14;99630.50;814505;47;20042;-79
2021/08/27 00:15:56;;;;;;;4.10;1.60;;;;;;;16.31;69.49;99627.72;813918;47;20067;-79
2021/08/27 00:16:45;;;;;;;5.20;2.10;;;;;;;16.26;69.80;99619.38;814231;54;20060;-78
2021/08/27 00:17:31;;;;;;;5.78;1.80;;;;;;;16.25;69.91;99628.47;814132;54;20042;-77
2021/08/27 00:18:20;;;;;;;3.97;1.60;;;;;;;16.25;69.83;99623.09;814688;54;20083;-77
2021/08/27 00:19:06;;;;;;;3.53;1.60;;;;;;;16.24;69.58;99625.97;814056;47;20047;-79
2021/08/27 00:19:54;;;;;;;4.10;1.75;;;;;;;16.23;70.05;99625.16;814239;54;20042;-78
2021/08/27 00:20:40;;;;;;;4.40;1.73;;;;;;;16.19;70.15;99632.81;814285;54;20042;-77
2021/08/27 00:21:29;;;;;;;3.25;1.30;;;;;;;16.17;70.44;99626.75;814320;54;20146;-77
2021/08/27 00:22:15;;;;;;;4.97;1.77;;;;;;;16.13;70.44;99622.75;813959;47;20656;-77
2021/08/27 00:23:03;;;;;;;3.90;1.63;;;;;;;16.15;70.50;99619.91;814428;54;20068;-79
2021/08/27 00:23:49;;;;;;;3.88;1.40;;;;;;;16.16;70.39;99622.38;813902;47;20042;-77
2021/08/27 00:24:38;;;;;;;4.43;1.70;;;;;;;16.10;70.76;99623.16;814785;39;20922;-78
2021/08/27 00:25:24;;;;;;;4.20;1.75;;;;;;;16.15;70.83;99628.81;813972;54;20042;-77
2021/08/27 00:26:13;;;;;;;2.90;1.33;;;;;;;16.13;70.77;99622.75;813913;54;20069;-78
2021/08/27 00:26:59;;;;;;;3.53;1.50;;;;;;;16.12;70.79;99620.28;814008;54;20042;-79
2021/08/27 00:27:47;;;;;;;4.53;1.55;;;;;;;16.11;70.83;99626.69;816043;39;20582;-77
2021/08/27 00:28:33;;;;;;;4.43;1.70;;;;;;;15.98;71.33;99633.59;813834;54;20042;-78
2021/08/27 00:29:24;;;;;;;5.85;1.90;;;;;;;15.97;71.63;99628.41;814458;47;20042;-78
2021/08/27 00:30:11;;;;;;;3.53;1.55;;;;;;;16.00;71.33;99625.34;813937;47;20038;-77
2021/08/27 00:30:58;;;;;;;4.57;2.00;;;;;;;15.99;71.22;99632.56;813734;47;20114;-77
2021/08/27 00:31:46;;;;;;;3.88;1.95;;;;;;;16.01;71.10;99630.53;814080;47;20121;-78
2021/08/27 00:32:32;;;;;;;4.25;1.50;;;;;;;16.02;71.05;99631.34;814204;46;20043;-77
2021/08/27 00:33:21;;;;;;;4.00;1.77;;;;;;;15.94;71.58;99639.56;814292;47;20060;-78
2021/08/27 00:34:07;;;;;;;3.83;1.60;;;;;;;15.92;71.36;99630.84;814092;54;20059;-77
2021/08/27 00:34:55;;;;;;;4.38;1.60;;;;;;;15.94;71.67;99634.16;813801;47;20049;-79
2021/08/27 00:35:41;;;;;;;4.13;1.67;;;;;;;15.86;71.79;99632.44;814224;47;21050;-77
2021/08/27 00:36:30;;;;;;;3.50;1.40;;;;;;;15.90;71.66;99633.72;813701;54;20061;-79
2021/08/27 00:37:16;;;;;;;4.00;1.85;;;;;;;15.89;71.91;99629.34;813771;47;20034;-78
2021/08/27 00:38:05;;;;;;;3.88;1.52;;;;;;;15.90;71.45;99631.88;814042;47;20030;-78
2021/08/27 00:38:51;;;;;;;4.22;1.45;;;;;;;15.90;71.71;99629.19;813937;54;20042;-77
2021/08/27 00:39:39;;;;;;;4.15;2.03;;;;;;;15.91;71.71;99627.31;814315;54;20042;-77
2021/08/27 00:40:25;;;;;;;4.25;1.80;;;;;;;15.89;71.95;99634.72;813937;47;20921;-79
2021/08/27 00:41:14;;;;;;;3.40;1.40;;;;;;;15.94;72.01;99635.03;813788;54;20071;-78
2021/08/27 00:42:00;;;;;;;4.18;1.90;;;;;;;15.94;72.09;99629.63;815103;39;20588;-77
2021/08/27 00:42:49;;;;;;;3.45;1.48;;;;;;;15.95;71.85;99630.44;814338;54;20039;-77
2021/08/27 00:43:35;;;;;;;5.25;1.90;;;;;;;15.91;72.22;99630.00;813860;52;20035;-79
2021/08/27 00:44:26;;;;;;;3.45;1.48;;;;;;;15.91;72.48;99630.00;813806;47;20038;-78
2021/08/27 00:45:12;;;;;;;4.03;1.42;;;;;;;15.89;72.38;99629.34;813960;54;20056;-77
2021/08/27 00:46:01;;;;;;;4.90;2.05;;;;;;;15.89;72.31;99623.94;814122;47;20046;-77
2021/08/27 00:46:46;;;;;;;3.42;1.45;;;;;;;15.89;72.32;99624.81;814288;47;20046;-77
2021/08/27 00:47:35;;;;;;;4.68;1.80;;;;;;;15.88;72.11;99631.22;813973;47;20574;-77
2021/08/27 00:48:21;;;;;;;3.25;1.48;;;;;;;15.90;72.28;99625.63;813978;54;20042;-77
2021/08/27 00:49:10;;;;;;;4.20;1.90;;;;;;;15.88;71.99;99625.81;814017;46;20532;-78
2021/08/27 00:49:56;;;;;;;2.83;1.05;;;;;;;15.93;71.91;99627.94;814164;54;20046;-76
2021/08/27 00:50:44;;;;;;;3.80;1.45;;;;;;;15.95;71.91;99623.22;813908;54;20057;-77
2021/08/27 00:51:30;;;;;;;3.97;1.40;;;;;;;15.96;72.33;99618.63;814057;47;20034;-77
2021/08/27 00:52:19;;;;;;;5.25;1.50;;;;;;;15.99;72.31;99618.28;814258;54;20034;-76
2021/08/27 00:53:06;;;;;;;4.03;1.52;;;;;;;16.00;72.37;99617.25;814326;47;20042;-79
2021/08/27 00:53:54;;;;;;;3.17;1.25;;;;;;;16.04;72.25;99615.81;814004;54;20046;-77
2021/08/27 00:54:46;;;;;;;3.15;1.40;;;;;;;16.02;72.57;99616.03;814323;54;20068;-77
2021/08/27 00:55:35;;;;;;;3.22;1.38;;;;;;;15.99;72.58;99621.78;814302;47;20069;-78
2021/08/27 00:56:21;;;;;;;4.05;1.67;;;;;;;15.99;72.36;99615.56;814029;47;20071;-77
2021/08/27 00:57:10;;;;;;;4.40;1.60;;;;;;;15.99;72.45;99629.06;813984;47;20035;-78
2021/08/27 00:57:56;;;;;;;3.72;1.50;;;;;;;15.98;72.31;99628.19;813852;46;20042;-77
2021/08/27 00:58:44;;;;;;;3.30;1.40;;;;;;;15.98;72.40;99622.81;814364;54;20042;-77
2021/08/27 00:59:34;;;;;;;4.25;1.20;;;;;;;15.94;72.48;99624.22;814201;47;20034;-77
2021/08/27 01:00:23;;;;;;;3.95;1.67;;;;;;;15.96;72.53;99619.50;814023;47;23515;-79
2021/08/27 01:01:09;;;;;;;3.42;1.55;;;;;;;15.95;72.69;99617.81;813949;54;20043;-76
2021/08/27 01:01:57;;;;;;;4.35;1.50;;;;;;;15.93;72.65;99619.88;814427;47;20049;-77
2021/08/27 01:02:43;;;;;;;3.70;1.73;;;;;;;15.91;72.43;99627.31;815213;39;20894;-77
2021/08/27 01:03:32;;;;;;;4.97;1.40;;;;;;;15.87;72.29;99629.53;814370;54;20043;-78
2021/08/27 01:04:18;;;;;;;4.78;1.60;;;;;;;15.83;72.69;99630.06;814046;54;20073;-78
2021/08/27 01:05:08;;;;;;;3.92;1.80;;;;;;;15.78;72.51;99635.19;814079;54;20037;-76
2021/08/27 01:06:04;;;;;;;4.22;1.50;;;;;;;15.75;72.50;99626.47;814235;54;20046;-77
2021/08/27 01:06:58;;;;;;;3.38;1.55;;;;;;;15.80;72.47;99633.16;814302;54;20715;-78
2021/08/27 01:07:50;;;;;;;4.18;1.52;;;;;;;15.75;72.16;99631.88;813769;54;20067;-77
2021/08/27 01:08:47;;;;;;;4.05;1.75;;;;;;;15.75;72.57;99631.00;814364;39;20468;-78
2021/08/27 01:09:39;;;;;;;5.10;2.00;;;;;;;15.78;72.41;99625.25;814288;46;20172;-79
2021/08/27 01:10:32;;;;;;;4.43;2.22;;;;;;;15.82;71.90;99628.41;813910;47;20114;-77
2021/08/27 01:11:26;;;;;;;3.22;1.58;;;;;;;15.84;72.30;99631.78;814002;46;21290;-77
2021/08/27 01:12:21;;;;;;;3.67;1.70;;;;;;;15.83;72.16;99630.06;814211;46;20432;-77
2021/08/27 01:13:16;;;;;;;3.45;1.63;;;;;;;15.82;71.97;99623.84;814251;54;20151;-78
2021/08/27 01:14:08;;;;;;;4.00;1.77;;;;;;;15.84;72.06;99629.09;814030;47;20042;-77
2021/08/27 01:15:02;;;;;;;4.13;1.73;;;;;;;15.84;72.04;99629.09;813595;47;20067;-78
2021/08/27 01:16:03;;;;;;;4.75;1.80;;;;;;;15.88;71.69;99624.97;814205;47;20041;-78
2021/08/27 01:16:57;;;;;;;3.83;1.67;;;;;;;15.88;71.64;99633.06;814727;54;20035;-77
2021/08/27 01:17:54;;;;;;;4.93;1.67;;;;;;;15.86;72.08;99630.56;814307;54;20046;-78
2021/08/27 01:18:45;;;;;;;4.10;1.60;;;;;;;15.84;72.11;99634.47;813813;47;20035;-76
2021/08/27 01:19:55;;;;;;;4.00;1.85;;;;;;;15.81;71.94;99634.81;814194;47;20733;-76
2021/08/27 01:21:09;;;;;;;3.95;1.55;;;;;;;15.75;72.42;99636.41;814005;47;20094;-76
2021/08/27 01:22:10;;;;;;;4.47;1.58;;;;;;;15.75;72.49;99631.88;814087;47;20035;-76
2021/08/27 01:23:12;;;;;;;4.95;2.03;;;;;;;15.71;72.79;99633.25;814044;47;20814;-78
2021/08/27 01:24:02;;;;;;;5.55;1.90;;;;;;;15.77;72.25;99628.16;813551;47;20113;-78
2021/08/27 01:24:49;;;;;;;3.92;1.58;;;;;;;15.82;72.33;99625.72;813681;47;20058;-77
2021/08/27 01:25:40;;;;;;;4.43;2.03;;;;;;;15.83;72.45;99632.78;813996;47;20102;-77
2021/08/27 01:26:32;;;;;;;4.65;1.80;;;;;;;15.85;72.16;99619.97;814131;54;20042;-78
2021/08/27 01:27:24;;;;;;;3.90;1.50;;;;;;;15.88;72.36;99624.97;814566;54;20042;-78
2021/08/27 01:28:10;;;;;;;3.28;1.50;;;;;;;15.87;72.19;99629.53;814179;54;20042;-77
2021/08/27 01:29:00;;;;;;;3.80;1.50;;;;;;;15.89;72.49;99626.66;813642;47;20044;-77
2021/08/27 01:29:56;;;;;;;3.05;1.23;;;;;;;15.94;72.20;99626.94;814173;47;20067;-78
2021/08/27 01:31:04;;;;;;;4.30;1.48;;;;;;;15.86;73.02;99627.88;815083;39;20541;-77
2021/08/27 01:31:58;;;;;;;3.83;1.63;;;;;;;15.80;73.38;99628.59;814724;54;20034;-77
2021/08/27 01:32:51;;;;;;;4.20;1.60;;;;;;;15.83;73.06;99624.69;813980;47;20042;-78
2021/08/27 01:33:43;;;;;;;3.92;1.30;;;;;;;15.84;73.10;99626.41;814578;54;20832;-77
2021/08/27 01:34:38;;;;;;;4.15;1.77;;;;;;;15.83;73.26;99632.78;814045;47;20058;-77
2021/08/27 01:35:28;;;;;;;3.70;1.58;;;;;;;15.81;73.19;99634.81;814056;47;20058;-78
2021/08/27 01:36:18;;;;;;;3.60;1.67;;;;;;;15.82;72.98;99631.09;813840;47;20034;-78
2021/08/27 01:37:08;;;;;;;4.03;1.50;;;;;;;15.83;73.16;99630.06;813918;54;20042;-77
2021/08/27 01:37:58;;;;;;;3.75;1.60;;;;;;;15.81;73.28;99634.81;813848;47;20046;-77
2021/08/27 01:38:46;;;;;;;4.32;1.67;;;;;;;15.67;73.63;99639.22;814362;54;21072;-78
2021/08/27 01:39:40;;;;;;;3.97;2.00;;;;;;;15.58;74.70;99642.00;813719;47;20645;-78
2021/08/27 01:40:28;;;;;;;4.45;2.30;;;;;;;15.50;74.57;99638.56;813865;47;20042;-77
2021/08/27 01:41:17;;;;;;;4.85;2.45;;;;;;;15.48;74.91;99635.25;813961;39;20747;-79
2021/08/27 01:42:05;;;;;;;5.85;2.33;;;;;;;15.47;75.28;99637.09;813820;47;20115;-76
2021/08/27 01:42:55;;;;;;;4.93;2.28;;;;;;;15.51;74.90;99632.16;813815;47;20042;-77
2021/08/27 01:43:43;;;;;;;5.43;2.25;;;;;;;15.43;75.60;99644.72;814137;54;20043;-77
2021/08/27 01:44:33;;;;;;;4.55;2.15;;;;;;;15.36;75.89;99642.94;813863;47;20106;-78
2021/08/27 01:45:19;;;;;;;4.47;2.20;;;;;;;15.32;76.14;99641.66;813750;47;20042;-77
2021/08/27 01:46:09;;;;;;;4.97;2.75;;;;;;;15.35;75.98;99644.81;813997;47;20042;-78
2021/08/27 01:46:58;;;;;;;5.07;2.20;;;;;;;15.31;76.53;99645.38;813711;47;20060;-79
2021/08/27 01:47:48;;;;;;;5.95;2.55;;;;;;;15.25;76.36;99646.94;813558;54;20042;-78
2021/08/27 01:48:37;;;;;;;5.75;2.70;;;;;;;15.27;76.84;99647.59;813025;54;20046;-77
2021/08/27 01:49:27;;;;;;;5.28;2.42;;;;;;;15.21;76.71;99653.75;813630;46;20604;-77
2021/08/27 01:50:16;;;;;;;5.55;2.60;;;;;;;15.20;77.15;99644.81;813839;54;20060;-78
2021/08/27 01:51:07;;;;;;;5.68;2.88;;;;;;;15.17;77.00;99644.34;813429;54;20069;-78
2021/08/27 01:51:55;;;;;;;5.72;2.50;;;;;;;15.17;76.99;99645.16;813369;46;20026;-77
2021/08/27 01:52:44;;;;;;;6.93;2.70;;;;;;;15.17;77.39;99647.03;813018;54;20042;-77
2021/08/27 01:53:31;;;;;;;5.93;3.05;;;;;;;15.05;78.03;99643.97;813114;54;20042;-77
2021/08/27 01:54:20;;;;;;;5.82;2.83;;;;;;;15.01;78.33;99648.88;813555;54;20069;-77
2021/08/27 01:55:09;;;;;;;7.30;2.95;;;;;;;14.98;78.33;99643.84;812543;47;20043;-78
2021/08/27 01:55:59;;;;;;;5.88;2.92;;;;;;;14.94;78.89;99646.09;813054;54;20034;-78
2021/08/27 01:56:46;;;;;;;7.45;3.10;;;;;;;14.87;79.06;99641.59;813822;54;20047;-78
2021/08/27 01:57:35;;;;;;;6.15;2.63;;;;;;;14.89;78.95;99645.78;813959;47;20074;-77
2021/08/27 01:58:21;;;;;;;6.57;3.00;;;;;;;14.88;79.34;99651.34;813949;39;21031;-76
2021/08/27 01:59:11;;;;;;;5.55;2.63;;;;;;;14.92;79.23;99649.97;813571;54;20053;-76
2021/08/27 01:59:58;;;;;;;6.60;2.95;;;;;;;14.85;79.17;99639.09;813620;47;20855;-77
2021/08/27 02:00:47;;;;;;;6.03;3.05;;;;;;;14.94;78.86;99645.22;813575;54;20050;-77
2021/08/27 02:01:35;;;;;;;5.60;3.03;;;;;;;14.90;78.98;99635.88;813038;47;20056;-78
2021/08/27 02:02:24;;;;;;;5.53;3.10;;;;;;;14.97;78.80;99642.19;813366;47;20034;-77
2021/08/27 02:03:11;;;;;;;6.47;3.15;;;;;;;14.85;79.29;99638.25;814313;31;20557;-78
2021/08/27 02:04:05;;;;;;;5.63;3.00;;;;;;;14.82;79.53;99637.63;813932;54;20042;-78
2021/08/27 02:04:54;;;;;;;4.80;2.70;;;;;;;14.82;79.60;99643.00;813396;46;20054;-78
2021/08/27 02:05:45;;;;;;;5.65;2.92;;;;;;;14.87;79.33;99631.69;813557;47;20042;-77
2021/08/27 02:06:32;;;;;;;7.70;2.92;;;;;;;14.86;79.60;99637.25;813409;54;20034;-77
2021/08/27 02:07:22;;;;;;;5.88;2.72;;;;;;;14.80;79.52;99638.81;813823;47;20034;-76
2021/08/27 02:08:09;;;;;;;5.43;3.03;;;;;;;14.85;79.30;99635.56;814496;39;20584;-78
2021/08/27 02:08:59;;;;;;;5.65;3.08;;;;;;;14.78;79.68;99640.88;813837;54;20038;-78
2021/08/27 02:09:48;;;;;;;8.18;3.30;;;;;;;14.78;79.66;99636.31;813739;47;20042;-77
2021/08/27 02:10:37;;;;;;;7.40;3.50;;;;;;;14.80;79.87;99639.66;813489;54;20034;-77
2021/08/27 02:11:24;;;;;;;5.72;3.33;;;;;;;14.73;80.29;99638.72;813084;54;20034;-77
2021/08/27 02:12:13;;;;;;;6.93;3.20;;;;;;;14.77;80.28;99634.63;813358;47;20034;-77
2021/08/27 02:12:59;;;;;;;6.72;2.90;;;;;;;14.84;79.72;99639.28;813604;47;20034;-79
2021/08/27 02:13:49;;;;;;;5.72;2.67;;;;;;;14.87;79.88;99638.91;813435;47;20046;-77
2021/08/27 02:14:37;;;;;;;5.25;2.75;;;;;;;14.88;79.79;99636.03;814920;39;21085;-77
2021/08/27 02:15:26;;;;;;;7.53;3.28;;;;;;;14.89;79.68;99642.25;813946;54;20047;-77
2021/08/27 02:16:14;;;;;;;6.20;2.97;;;;;;;14.89;79.70;99640.41;814985;39;20556;-77
2021/08/27 02:17:07;;;;;;;7.45;3.28;;;;;;;14.82;79.93;99637.63;813685;47;20042;-77
2021/08/27 02:17:53;;;;;;;6.55;3.30;;;;;;;14.84;79.94;99636.56;813395;54;20171;-79
2021/08/27 02:18:42;;;;;;;7.60;3.67;;;;;;;14.81;79.99;99635.09;813646;54;20039;-78
2021/08/27 02:19:28;;;;;;;7.18;3.40;;;;;;;14.75;80.35;99636.66;813633;54;20042;-78
2021/08/27 02:20:18;;;;;;;5.57;3.20;;;;;;;14.79;80.10;99632.59;814029;54;20068;-77
2021/08/27 02:21:09;;;;;;;5.10;2.90;;;;;;;14.82;80.03;99643.00;814476;47;20039;-77
2021/08/27 02:21:59;;;;;;;5.75;3.30;;;;;;;14.86;79.98;99639.94;814449;54;20065;-76
2021/08/27 02:22:49;;;;;;;5.20;2.88;;;;;;;14.88;79.83;99641.41;814564;54;20035;-76
2021/08/27 02:23:42;;;;;;;5.93;3.28;;;;;;;14.86;79.58;99643.47;814638;47;20060;-77
2021/08/27 02:24:32;;;;;;;5.03;3.05;;;;;;;14.88;79.71;99640.59;813764;54;20049;-76
2021/08/27 02:25:23;;;;;;;5.75;3.08;;;;;;;14.88;79.13;99644.09;814018;54;20061;-77
2021/08/27 02:26:14;;;;;;;5.55;3.25;;;;;;;14.95;79.23;99644.22;813663;54;20963;-77
2021/08/27 02:27:02;;;;;;;5.78;3.00;;;;;;;14.91;79.28;99634.84;813699;47;20042;-77
2021/08/27 02:27:51;;;;;;;5.50;3.05;;;;;;;14.94;79.25;99645.22;814012;39;20296;-78
2021/08/27 02:28:38;;;;;;;6.97;2.80;;;;;;;14.93;79.16;99649.78;814178;39;20687;-77
2021/08/27 02:29:30;;;;;;;6.70;3.28;;;;;;;14.87;79.23;99641.59;813465;47;20049;-76
2021/08/27 02:30:16;;;;;;;7.38;2.80;;;;;;;14.86;79.53;99648.00;813980;54;20660;-78
2021/08/27 02:31:06;;;;;;;7.45;3.63;;;;;;;14.85;79.37;99640.94;813812;47;20038;-77
2021/08/27 02:31:59;;;;;;;6.75;3.20;;;;;;;14.90;79.52;99644.75;813720;54;20030;-76
2021/08/27 02:32:48;;;;;;;5.68;3.10;;;;;;;14.95;79.05;99644.22;813824;54;20054;-76
2021/08/27 02:33:36;;;;;;;5.22;2.75;;;;;;;14.96;78.86;99648.59;813734;47;20125;-77
2021/08/27 02:34:25;;;;;;;8.52;3.35;;;;;;;14.97;79.09;99643.00;813790;54;20068;-77
2021/08/27 02:35:13;;;;;;;7.82;2.92;;;;;;;14.88;79.13;99644.09;813719;54;20644;-78
2021/08/27 02:36:03;;;;;;;5.57;3.13;;;;;;;14.87;79.40;99645.16;813695;47;20086;-77
2021/08/27 02:36:56;;;;;;;7.35;2.85;;;;;;;14.86;79.55;99645.31;813962;54;20966;-76
2021/08/27 02:37:46;;;;;;;7.57;2.97;;;;;;;14.89;79.19;99644.97;814002;54;20038;-78
2021/08/27 02:38:33;;;;;;;6.68;3.10;;;;;;;14.87;79.18;99647.00;813873;54;20067;-77
2021/08/27 02:39:25;;;;;;;5.80;3.28;;;;;;;14.93;79.20;99648.94;813748;54;20061;-77
2021/08/27 02:40:12;;;;;;;4.68;2.67;;;;;;;14.90;78.98;99643.94;813835;47;20046;-78
2021/08/27 02:41:01;;;;;;;6.93;3.10;;;;;;;14.90;79.04;99641.25;813798;47;20030;-77
2021/08/27 02:41:48;;;;;;;6.47;3.03;;;;;;;14.95;78.83;99642.38;818003;39;20530;-77
2021/08/27 02:42:37;;;;;;;6.05;2.80;;;;;;;14.99;78.99;99642.84;813833;47;20068;-77
2021/08/27 02:43:23;;;;;;;5.82;3.10;;;;;;;14.87;79.34;99639.78;814117;54;20089;-77
2021/08/27 02:44:12;;;;;;;5.53;2.78;;;;;;;14.90;79.18;99635.88;813956;47;20061;-77
2021/08/27 02:44:58;;;;;;;6.13;3.33;;;;;;;14.89;79.29;99644.97;816111;31;20592;-78
2021/08/27 02:45:47;;;;;;;5.38;2.75;;;;;;;14.88;79.35;99645.97;813561;54;20050;-77
2021/08/27 02:46:33;;;;;;;6.43;3.10;;;;;;;14.94;79.05;99642.53;814081;47;20042;-77
2021/08/27 02:47:22;;;;;;;5.82;3.05;;;;;;;14.96;79.31;99641.34;813990;47;20098;-76
2021/08/27 02:48:08;;;;;;;6.47;3.28;;;;;;;14.96;79.08;99643.19;813701;47;20038;-77
2021/08/27 02:48:57;;;;;;;6.13;2.92;;;;;;;14.93;79.54;99639.03;813645;54;20061;-76
2021/08/27 02:49:43;;;;;;;6.85;3.15;;;;;;;14.80;79.87;99639.66;814270;54;20042;-79
2021/08/27 02:50:36;;;;;;;5.50;2.75;;;;;;;14.84;79.85;99642.81;814436;39;20859;-77
2021/08/27 02:51:28;;;;;;;7.20;3.50;;;;;;;14.93;79.65;99644.41;813950;54;20059;-77
2021/08/27 02:52:27;;;;;;;6.72;3.58;;;;;;;14.87;79.29;99644.28;813452;47;20042;-77
2021/08/27 02:53:17;;;;;;;6.32;3.00;;;;;;;14.87;79.50;99644.28;814511;54;20031;-77
2021/08/27 02:54:08;;;;;;;6.10;2.85;;;;;;;14.93;79.18;99638.16;816067;39;20570;-77
2021/08/27 02:55:03;;;;;;;8.15;2.80;;;;;;;14.91;79.16;99641.06;814541;39;20539;-77
2021/08/27 02:55:58;;;;;;;5.18;2.70;;;;;;;15.00;79.31;99649.03;813416;47;20049;-78
2021/08/27 02:56:47;;;;;;;5.10;2.65;;;;;;;15.04;78.84;99645.81;813816;47;20072;-77
2021/08/27 02:57:48;;;;;;;5.55;2.80;;;;;;;15.01;78.89;99642.66;813923;54;20035;-77
2021/08/27 02:58:35;;;;;;;5.97;2.80;;;;;;;15.07;78.54;99645.44;813388;47;21096;-77
2021/08/27 02:59:28;;;;;;;5.47;2.85;;;;;;;15.07;78.59;99644.59;813844;47;20775;-76
2021/08/27 03:00:16;;;;;;;4.60;2.50;;;;;;;15.02;78.93;99644.31;814305;54;20617;-77
2021/08/27 03:01:11;;;;;;;6.40;2.75;;;;;;;14.93;78.75;99649.78;815207;39;20440;-77
2021/08/27 03:02:02;;;;;;;7.70;2.83;;;;;;;14.97;78.74;99644.88;813809;54;20034;-77
2021/08/27 03:02:51;;;;;;;5.60;2.72;;;;;;;15.10;78.27;99645.09;813731;54;20251;-77
2021/08/27 03:03:39;;;;;;;5.05;2.90;;;;;;;15.19;78.13;99653.06;814028;47;20046;-77
2021/08/27 03:04:40;;;;;;;5.93;2.80;;;;;;;15.17;78.00;99649.72;814121;47;20042;-77
2021/08/27 03:05:34;;;;;;;5.47;2.67;;;;;;;15.12;78.10;99648.41;814303;54;20038;-77
2021/08/27 03:06:30;;;;;;;6.57;2.80;;;;;;;15.19;77.60;99647.69;814067;54;20060;-76
2021/08/27 03:07:22;;;;;;;5.57;2.83;;;;;;;15.04;78.01;99648.50;814591;54;20102;-77
2021/08/27 03:08:15;;;;;;;5.63;2.67;;;;;;;15.00;77.83;99649.91;814131;46;20173;-78
2021/08/27 03:09:05;;;;;;;7.72;3.55;;;;;;;14.96;77.79;99648.59;813622;47;20727;-78
2021/08/27 03:09:57;;;;;;;;;;;;;;;14.88;77.91;99656.75;814810;54;20608;-77
2021/08/27 03:10:48;;;;;;;4.95;2.80;;;;;;;14.92;78.07;99650.81;813830;54;19946;-77
2021/08/27 03:11:43;;;;;;;4.65;2.65;;;;;;;14.86;78.30;99648.00;814574;54;20102;-76
2021/08/27 03:12:37;;;;;;;7.97;2.72;;;;;;;14.88;78.20;99651.34;814285;54;20067;-78
2021/08/27 03:13:35;;;;;;;5.72;3.00;;;;;;;14.84;78.28;99647.34;814063;47;20161;-77
2021/08/27 03:14:30;;;;;;;4.43;2.42;;;;;;;14.93;77.92;99649.78;813965;47;20042;-78
2021/08/27 03:15:28;;;;;;;7.75;2.83;;;;;;;14.98;77.92;99642.00;813994;54;20049;-77
2021/08/27 03:16:17;;;;;;;6.68;2.78;;;;;;;14.84;78.20;99645.50;813637;47;20035;-78
2021/08/27 03:17:08;;;;;;;7.30;2.97;;;;;;;14.85;78.27;99638.25;813984;46;20042;-77
2021/08/27 03:18:00;;;;;;;6.40;2.90;;;;;;;14.85;78.55;99641.81;814472;54;20054;-77
2021/08/27 03:18:55;;;;;;;5.78;2.78;;;;;;;14.80;78.35;99634.28;813709;46;20068;-77
2021/08/27 03:19:49;;;;;;;6.57;3.20;;;;;;;14.80;78.67;99638.81;814003;47;20042;-78
2021/08/27 03:20:45;;;;;;;5.70;2.90;;;;;;;14.79;78.50;99631.75;814001;46;20042;-77
2021/08/27 03:21:36;;;;;;;7.05;3.40;;;;;;;14.75;78.42;99630.44;814231;54;20057;-77
2021/08/27 03:22:31;;;;;;;5.57;2.88;;;;;;;14.77;78.45;99631.94;813759;47;20042;-77
2021/08/27 03:23:19;;;;;;;7.95;3.22;;;;;;;14.77;78.56;99631.13;814130;47;20042;-76
2021/08/27 03:24:16;;;;;;;8.00;3.30;;;;;;;14.86;78.43;99631.84;814453;54;20043;-77
2021/08/27 03:25:05;;;;;;;6.13;2.70;;;;;;;14.94;77.93;99642.53;814134;47;20114;-77
2021/08/27 03:25:55;;;;;;;6.38;2.72;;;;;;;15.05;77.61;99636.72;814316;54;20049;-79
2021/08/27 03:26:42;;;;;;;;;;;;;;;15.00;77.74;99640.97;814731;54;20034;-78
2021/08/27 03:27:36;;;;;;;4.65;2.20;;;;;;;15.09;77.40;99643.41;814246;47;19950;-77
2021/08/27 03:28:26;;;;;;;4.47;2.45;;;;;;;15.05;77.69;99636.72;813557;47;20059;-77
2021/08/27 03:29:18;;;;;;;5.38;2.50;;;;;;;15.11;77.51;99637.84;813529;47;20102;-77
2021/08/27 03:30:10;;;;;;;7.25;2.92;;;;;;;15.12;77.50;99636.81;813716;54;20030;-77
2021/08/27 03:30:59;;;;;;;5.15;2.42;;;;;;;15.18;77.15;99640.63;813778;47;20053;-77
2021/08/27 03:31:46;;;;;;;5.65;2.30;;;;;;;15.08;77.32;99633.66;814108;54;20062;-77
2021/08/27 03:32:35;;;;;;;5.57;2.42;;;;;;;15.19;77.13;99645.00;813792;54;20074;-77
2021/08/27 03:33:23;;;;;;;4.45;2.10;;;;;;;15.23;76.95;99636.38;813982;54;20141;-77
2021/08/27 03:34:13;;;;;;;5.00;2.40;;;;;;;15.30;76.68;99641.84;814334;54;20038;-78
2021/08/27 03:35:00;;;;;;;6.10;2.67;;;;;;;15.21;77.23;99637.59;814495;54;20669;-78
2021/08/27 03:35:52;;;;;;;6.07;3.03;;;;;;;15.09;77.22;99643.41;813791;47;20769;-78
2021/08/27 03:36:42;;;;;;;5.07;2.60;;;;;;;15.16;77.22;99643.50;813332;54;20034;-77
2021/08/27 03:37:31;;;;;;;5.95;2.83;;;;;;;15.00;77.61;99643.66;813897;54;20042;-77
2021/08/27 03:38:23;;;;;;;5.95;2.90;;;;;;;15.00;77.86;99644.50;812594;39;20528;-77
2021/08/27 03:39:09;;;;;;;5.75;2.90;;;;;;;14.98;77.67;99647.38;812254;47;20034;-77
2021/08/27 03:40:00;;;;;;;6.55;3.17;;;;;;;15.10;77.24;99638.84;812543;54;20049;-77
2021/08/27 03:40:49;;;;;;;5.97;3.00;;;;;;;15.17;77.20;99645.16;814683;39;20497;-77
2021/08/27 03:41:40;;;;;;;5.78;2.70;;;;;;;15.16;76.99;99642.66;813249;54;20035;-77
2021/08/27 03:42:26;;;;;;;5.55;2.50;;;;;;;15.21;76.83;99640.28;812558;54;20060;-77
2021/08/27 03:43:16;;;;;;;6.43;2.35;;;;;;;15.28;76.57;99642.00;812671;47;20034;-78
2021/08/27 03:44:02;;;;;;;5.63;2.47;;;;;;;15.27;76.59;99651.13;813018;47;20039;-76
2021/08/27 03:44:52;;;;;;;6.55;2.58;;;;;;;15.32;76.62;99642.47;812985;47;21030;-77
2021/08/27 03:45:39;;;;;;;5.33;2.47;;;;;;;15.30;76.63;99644.53;813399;54;20056;-77
2021/08/27 03:46:29;;;;;;;5.53;2.40;;;;;;;15.31;76.81;99646.19;812902;54;20946;-77
2021/08/27 03:47:15;;;;;;;5.47;2.50;;;;;;;15.15;77.13;99649.06;813980;54;21001;-78
2021/08/27 03:48:04;;;;;;;4.07;2.33;;;;;;;15.23;76.95;99639.06;814026;54;20832;-77
2021/08/27 03:48:51;;;;;;;5.78;2.30;;;;;;;15.28;76.88;99647.41;813593;31;20710;-77
2021/08/27 03:49:40;;;;;;;7.28;2.55;;;;;;;15.31;76.83;99639.97;812236;47;20050;-77
2021/08/27 03:50:26;;;;;;;5.07;2.70;;;;;;;15.28;76.89;99641.19;812466;47;20061;-77
2021/08/27 03:51:15;;;;;;;5.75;2.67;;;;;;;15.28;77.00;99641.19;812102;54;20042;-77
2021/08/27 03:52:02;;;;;;;4.78;2.33;;;;;;;15.32;76.68;99642.47;812000;47;20064;-77
2021/08/27 03:52:55;;;;;;;5.53;2.88;;;;;;;15.21;77.05;99645.66;811715;47;20035;-77
2021/08/27 03:53:43;;;;;;;4.38;2.40;;;;;;;15.30;76.83;99649.94;812128;47;20038;-77
2021/08/27 03:54:32;;;;;;;4.55;2.47;;;;;;;15.33;76.80;99637.94;812479;54;20043;-77
2021/08/27 03:55:19;;;;;;;6.93;2.88;;;;;;;15.23;77.12;99644.44;812374;47;20075;-77
2021/08/27 03:56:10;;;;;;;4.80;2.85;;;;;;;15.27;76.86;99645.72;812897;39;20526;-78
2021/08/27 03:57:00;;;;;;;5.28;2.58;;;;;;;15.30;76.71;99639.16;812331;54;20042;-78